sensor_id;sensor_type;location;lat;lon;timestamp;P1;durP1;ratioP1;P2;durP2;ratioP2
84270;SDS011;74614;50.032;19.566;2024-01-15T00:01:27;12;;;8;;
84270;SDS011;74614;50.032;19.566;2024-01-15T00:03:23;11;;;7;;
84270;SDS011;74614;50.032;19.566;2024-01-15T00:05:25;11;;;7;;
84270;SDS011;74614;50.032;19.566;2024-01-15T00:07:23;11;;;8;;
84270;SDS011;74614;50.032;19.566;2024-01-15T00:09:25;10;;;7;;
84270;SDS011;74614;50.032;19.566;2024-01-15T00:11:24;11;;;7;;
84270;SDS011;74614;50.032;19.566;2024-01-15T00:13:25;15;;;9;;
84270;SDS011;74614;50.032;19.566;2024-01-15T00:15:22;12;;;9;;
84270;SDS011;74614;50.032;19.566;2024-01-15T00:17:24;12;;;9;;
84270;SDS011;74614;50.032;19.566;2024-01-15T00:19:28;14;;;9;;
84270;SDS011;74614;50.032;19.566;2024-01-15T00:21:24;13;;;8;;
84270;SDS011;74614;50.032;19.566;2024-01-15T00:23:22;12;;;8;;
84270;SDS011;74614;50.032;19.566;2024-01-15T00:25:25;12;;;8;;
84270;SDS011;74614;50.032;19.566;2024-01-15T00:27:22;10;;;7;;
84270;SDS011;74614;50.032;19.566;2024-01-15T00:29:45;11;;;8;;
84270;SDS011;74614;50.032;19.566;2024-01-15T00:32:22;11;;;8;;
84270;SDS011;74614;50.032;19.566;2024-01-15T00:34:21;9;;;7;;
84270;SDS011;74614;50.032;19.566;2024-01-15T00:36:22;11;;;7;;
84270;SDS011;74614;50.032;19.566;2024-01-15T00:38:24;10;;;7;;
84270;SDS011;74614;50.032;19.566;2024-01-15T00:40:21;11;;;7;;
84270;SDS011;74614;50.032;19.566;2024-01-15T00:42:25;10;;;7;;
84270;SDS011;74614;50.032;19.566;2024-01-15T00:44:26;11;;;7;;
84270;SDS011;74614;50.032;19.566;2024-01-15T00:46:22;10;;;6;;
84270;SDS011;74614;50.032;19.566;2024-01-15T00:48:22;11;;;7;;
84270;SDS011;74614;50.032;19.566;2024-01-15T00:50:22;10;;;7;;
84270;SDS011;74614;50.032;19.566;2024-01-15T00:52:22;11;;;7;;
84270;SDS011;74614;50.032;19.566;2024-01-15T00:54:22;10;;;7;;
84270;SDS011;74614;50.032;19.566;2024-01-15T00:56:21;13;;;8;;
84270;SDS011;74614;50.032;19.566;2024-01-15T00:58:23;10;;;7;;
84270;SDS011;74614;50.032;19.566;2024-01-15T01:00:21;10;;;8;;
84270;SDS011;74614;50.032;19.566;2024-01-15T01:02:25;11;;;7;;
84270;SDS011;74614;50.032;19.566;2024-01-15T01:04:22;12;;;8;;
84270;SDS011;74614;50.032;19.566;2024-01-15T01:06:24;11;;;7;;
84270;SDS011;74614;50.032;19.566;2024-01-15T01:08:21;11;;;8;;
84270;SDS011;74614;50.032;19.566;2024-01-15T01:10:22;11;;;7;;
84270;SDS011;74614;50.032;19.566;2024-01-15T01:12:29;12;;;8;;
84270;SDS011;74614;50.032;19.566;2024-01-15T01:14:22;10;;;7;;
84270;SDS011;74614;50.032;19.566;2024-01-15T01:16:21;9;;;7;;
84270;SDS011;74614;50.032;19.566;2024-01-15T01:18:22;11;;;7;;
84270;SDS011;74614;50.032;19.566;2024-01-15T01:20:24;11;;;8;;
84270;SDS011;74614;50.032;19.566;2024-01-15T01:22:24;9;;;6;;
84270;SDS011;74614;50.032;19.566;2024-01-15T01:24:35;11;;;7;;
84270;SDS011;74614;50.032;19.566;2024-01-15T01:27:21;10;;;7;;
84270;SDS011;74614;50.032;19.566;2024-01-15T01:29:25;10;;;8;;
84270;SDS011;74614;50.032;19.566;2024-01-15T01:31:32;11;;;7;;
84270;SDS011;74614;50.032;19.566;2024-01-15T01:33:27;9;;;6;;
84270;SDS011;74614;50.032;19.566;2024-01-15T01:35:26;9;;;7;;
84270;SDS011;74614;50.032;19.566;2024-01-15T01:37:23;9;;;7;;
84270;SDS011;74614;50.032;19.566;2024-01-15T01:39:22;9;;;6;;
84270;SDS011;74614;50.032;19.566;2024-01-15T01:41:26;9;;;6;;
84270;SDS011;74614;50.032;19.566;2024-01-15T01:43:22;9;;;6;;
84270;SDS011;74614;50.032;19.566;2024-01-15T01:45:24;9;;;6;;
84270;SDS011;74614;50.032;19.566;2024-01-15T01:47:22;9;;;6;;
84270;SDS011;74614;50.032;19.566;2024-01-15T01:49:22;9;;;6;;
84270;SDS011;74614;50.032;19.566;2024-01-15T01:51:22;9;;;6;;
84270;SDS011;74614;50.032;19.566;2024-01-15T01:53:25;9;;;6;;
84270;SDS011;74614;50.032;19.566;2024-01-15T01:55:22;9;;;6;;
84270;SDS011;74614;50.032;19.566;2024-01-15T01:57:22;9;;;6;;
84270;SDS011;74614;50.032;19.566;2024-01-15T01:59:21;9;;;6;;
84270;SDS011;74614;50.032;19.566;2024-01-15T02:01:24;9;;;6;;
84270;SDS011;74614;50.032;19.566;2024-01-15T02:03:21;9;;;6;;
84270;SDS011;74614;50.032;19.566;2024-01-15T02:05:24;8;;;6;;
84270;SDS011;74614;50.032;19.566;2024-01-15T02:07:26;9;;;6;;
84270;SDS011;74614;50.032;19.566;2024-01-15T02:09:24;8;;;5;;
84270;SDS011;74614;50.032;19.566;2024-01-15T02:11:21;9;;;6;;
84270;SDS011;74614;50.032;19.566;2024-01-15T02:13:25;7;;;6;;
84270;SDS011;74614;50.032;19.566;2024-01-15T02:15:21;8;;;6;;
84270;SDS011;74614;50.032;19.566;2024-01-15T02:17:23;7;;;5;;
84270;SDS011;74614;50.032;19.566;2024-01-15T02:19:22;7;;;5;;
84270;SDS011;74614;50.032;19.566;2024-01-15T02:21:24;7;;;5;;
84270;SDS011;74614;50.032;19.566;2024-01-15T02:23:21;7;;;5;;
84270;SDS011;74614;50.032;19.566;2024-01-15T02:25:24;7;;;5;;
84270;SDS011;74614;50.032;19.566;2024-01-15T02:27:22;7;;;5;;
84270;SDS011;74614;50.032;19.566;2024-01-15T02:29:23;6;;;5;;
84270;SDS011;74614;50.032;19.566;2024-01-15T02:31:21;6;;;4;;
84270;SDS011;74614;50.032;19.566;2024-01-15T02:33:26;5;;;4;;
84270;SDS011;74614;50.032;19.566;2024-01-15T02:35:22;5;;;4;;
84270;SDS011;74614;50.032;19.566;2024-01-15T02:37:25;5;;;4;;
84270;SDS011;74614;50.032;19.566;2024-01-15T02:39:21;5;;;3;;
84270;SDS011;74614;50.032;19.566;2024-01-15T02:41:24;7;;;4;;
84270;SDS011;74614;50.032;19.566;2024-01-15T02:43:22;5;;;5;;
84270;SDS011;74614;50.032;19.566;2024-01-15T02:45:26;5;;;5;;
84270;SDS011;74614;50.032;19.566;2024-01-15T02:47:22;5;;;4;;
84270;SDS011;74614;50.032;19.566;2024-01-15T02:49:27;5;;;4;;
84270;SDS011;74614;50.032;19.566;2024-01-15T02:51:22;5;;;4;;
84270;SDS011;74614;50.032;19.566;2024-01-15T02:53:25;5;;;4;;
84270;SDS011;74614;50.032;19.566;2024-01-15T02:55:26;5;;;3;;
84270;SDS011;74614;50.032;19.566;2024-01-15T02:57:25;5;;;4;;
84270;SDS011;74614;50.032;19.566;2024-01-15T02:59:22;4;;;3;;
84270;SDS011;74614;50.032;19.566;2024-01-15T03:01:31;6;;;4;;
84270;SDS011;74614;50.032;19.566;2024-01-15T03:03:25;5;;;4;;
84270;SDS011;74614;50.032;19.566;2024-01-15T03:05:24;5;;;4;;
84270;SDS011;74614;50.032;19.566;2024-01-15T03:07:22;7;;;4;;
84270;SDS011;74614;50.032;19.566;2024-01-15T03:09:26;6;;;4;;
84270;SDS011;74614;50.032;19.566;2024-01-15T03:11:22;6;;;5;;
84270;SDS011;74614;50.032;19.566;2024-01-15T03:13:30;5;;;4;;
84270;SDS011;74614;50.032;19.566;2024-01-15T03:15:22;6;;;5;;
84270;SDS011;74614;50.032;19.566;2024-01-15T03:17:28;7;;;5;;
84270;SDS011;74614;50.032;19.566;2024-01-15T03:19:23;7;;;5;;
84270;SDS011;74614;50.032;19.566;2024-01-15T03:21:25;6;;;5;;
84270;SDS011;74614;50.032;19.566;2024-01-15T03:23:22;7;;;5;;
84270;SDS011;74614;50.032;19.566;2024-01-15T03:25:25;7;;;5;;
84270;SDS011;74614;50.032;19.566;2024-01-15T03:27:22;7;;;5;;
84270;SDS011;74614;50.032;19.566;2024-01-15T03:29:28;7;;;6;;
84270;SDS011;74614;50.032;19.566;2024-01-15T03:31:22;7;;;5;;
84270;SDS011;74614;50.032;19.566;2024-01-15T03:33:29;6;;;5;;
84270;SDS011;74614;50.032;19.566;2024-01-15T03:35:22;8;;;6;;
84270;SDS011;74614;50.032;19.566;2024-01-15T03:37:23;7;;;5;;
84270;SDS011;74614;50.032;19.566;2024-01-15T03:39:23;6;;;5;;
84270;SDS011;74614;50.032;19.566;2024-01-15T03:41:29;8;;;7;;
84270;SDS011;74614;50.032;19.566;2024-01-15T03:43:23;7;;;6;;
84270;SDS011;74614;50.032;19.566;2024-01-15T03:45:24;7;;;5;;
84270;SDS011;74614;50.032;19.566;2024-01-15T03:47:21;7;;;6;;
84270;SDS011;74614;50.032;19.566;2024-01-15T03:49:30;7;;;5;;
84270;SDS011;74614;50.032;19.566;2024-01-15T03:51:22;8;;;6;;
84270;SDS011;74614;50.032;19.566;2024-01-15T03:53:26;8;;;6;;
84270;SDS011;74614;50.032;19.566;2024-01-15T03:55:23;8;;;6;;
84270;SDS011;74614;50.032;19.566;2024-01-15T03:57:24;8;;;6;;
84270;SDS011;74614;50.032;19.566;2024-01-15T03:59:32;6;;;5;;
84270;SDS011;74614;50.032;19.566;2024-01-15T04:01:24;8;;;5;;
84270;SDS011;74614;50.032;19.566;2024-01-15T04:03:23;6;;;5;;
84270;SDS011;74614;50.032;19.566;2024-01-15T04:05:23;7;;;5;;
84270;SDS011;74614;50.032;19.566;2024-01-15T04:07:25;6;;;4;;
84270;SDS011;74614;50.032;19.566;2024-01-15T04:09:27;7;;;4;;
84270;SDS011;74614;50.032;19.566;2024-01-15T04:11:22;6;;;4;;
84270;SDS011;74614;50.032;19.566;2024-01-15T04:13:24;5;;;4;;
84270;SDS011;74614;50.032;19.566;2024-01-15T04:15:25;5;;;3;;
84270;SDS011;74614;50.032;19.566;2024-01-15T04:17:24;6;;;4;;
84270;SDS011;74614;50.032;19.566;2024-01-15T04:19:22;7;;;5;;
84270;SDS011;74614;50.032;19.566;2024-01-15T04:21:23;6;;;4;;
84270;SDS011;74614;50.032;19.566;2024-01-15T04:23:23;6;;;4;;
84270;SDS011;74614;50.032;19.566;2024-01-15T04:25:28;6;;;3;;
84270;SDS011;74614;50.032;19.566;2024-01-15T04:27:22;5;;;3;;
84270;SDS011;74614;50.032;19.566;2024-01-15T04:29:25;5;;;4;;
84270;SDS011;74614;50.032;19.566;2024-01-15T04:31:23;5;;;4;;
84270;SDS011;74614;50.032;19.566;2024-01-15T04:33:23;5;;;4;;
84270;SDS011;74614;50.032;19.566;2024-01-15T04:35:23;5;;;3;;
84270;SDS011;74614;50.032;19.566;2024-01-15T04:37:22;6;;;5;;
84270;SDS011;74614;50.032;19.566;2024-01-15T04:39:23;6;;;4;;
84270;SDS011;74614;50.032;19.566;2024-01-15T04:41:25;5;;;3;;
84270;SDS011;74614;50.032;19.566;2024-01-15T04:43:28;5;;;3;;
84270;SDS011;74614;50.032;19.566;2024-01-15T04:45:33;5;;;3;;
84270;SDS011;74614;50.032;19.566;2024-01-15T04:48:22;6;;;4;;
84270;SDS011;74614;50.032;19.566;2024-01-15T04:50:25;6;;;4;;
84270;SDS011;74614;50.032;19.566;2024-01-15T04:52:26;6;;;4;;
84270;SDS011;74614;50.032;19.566;2024-01-15T04:54:23;6;;;4;;
84270;SDS011;74614;50.032;19.566;2024-01-15T04:56:23;6;;;4;;
84270;SDS011;74614;50.032;19.566;2024-01-15T04:58:22;6;;;4;;
84270;SDS011;74614;50.032;19.566;2024-01-15T05:00:22;6;;;4;;
84270;SDS011;74614;50.032;19.566;2024-01-15T05:02:22;6;;;4;;
84270;SDS011;74614;50.032;19.566;2024-01-15T05:04:23;6;;;4;;
84270;SDS011;74614;50.032;19.566;2024-01-15T05:06:21;6;;;4;;
84270;SDS011;74614;50.032;19.566;2024-01-15T05:08:22;6;;;4;;
84270;SDS011;74614;50.032;19.566;2024-01-15T05:10:25;6;;;4;;
84270;SDS011;74614;50.032;19.566;2024-01-15T05:12:23;4;;;3;;
84270;SDS011;74614;50.032;19.566;2024-01-15T05:14:22;6;;;5;;
84270;SDS011;74614;50.032;19.566;2024-01-15T05:16:22;4;;;4;;
84270;SDS011;74614;50.032;19.566;2024-01-15T05:18:22;4;;;4;;
84270;SDS011;74614;50.032;19.566;2024-01-15T05:20:24;4;;;3;;
84270;SDS011;74614;50.032;19.566;2024-01-15T05:22:23;4;;;3;;
84270;SDS011;74614;50.032;19.566;2024-01-15T05:24:32;4;;;4;;
84270;SDS011;74614;50.032;19.566;2024-01-15T05:27:24;6;;;3;;
84270;SDS011;74614;50.032;19.566;2024-01-15T05:29:25;7;;;3;;
84270;SDS011;74614;50.032;19.566;2024-01-15T05:31:23;7;;;3;;
84270;SDS011;74614;50.032;19.566;2024-01-15T05:33:24;7;;;3;;
84270;SDS011;74614;50.032;19.566;2024-01-15T05:35:24;7;;;3;;
84270;SDS011;74614;50.032;19.566;2024-01-15T05:37:23;7;;;3;;
84270;SDS011;74614;50.032;19.566;2024-01-15T05:39:22;7;;;3;;
84270;SDS011;74614;50.032;19.566;2024-01-15T05:41:26;5;;;4;;
84270;SDS011;74614;50.032;19.566;2024-01-15T05:43:21;4;;;3;;
84270;SDS011;74614;50.032;19.566;2024-01-15T05:45:26;5;;;4;;
84270;SDS011;74614;50.032;19.566;2024-01-15T05:47:23;6;;;5;;
84270;SDS011;74614;50.032;19.566;2024-01-15T05:49:25;4;;;3;;
84270;SDS011;74614;50.032;19.566;2024-01-15T05:51:22;5;;;4;;
84270;SDS011;74614;50.032;19.566;2024-01-15T05:53:24;6;;;4;;
84270;SDS011;74614;50.032;19.566;2024-01-15T05:55:21;5;;;3;;
84270;SDS011;74614;50.032;19.566;2024-01-15T05:57:23;5;;;3;;
84270;SDS011;74614;50.032;19.566;2024-01-15T05:59:29;6;;;4;;
84270;SDS011;74614;50.032;19.566;2024-01-15T05:59:29;6;;;4;;
84270;SDS011;74614;50.032;19.566;2024-01-15T06:01:24;5;;;4;;
84270;SDS011;74614;50.032;19.566;2024-01-15T06:03:24;5;;;4;;
84270;SDS011;74614;50.032;19.566;2024-01-15T06:05:25;5;;;4;;
84270;SDS011;74614;50.032;19.566;2024-01-15T06:07:24;6;;;4;;
84270;SDS011;74614;50.032;19.566;2024-01-15T06:09:24;6;;;4;;
84270;SDS011;74614;50.032;19.566;2024-01-15T06:11:21;5;;;4;;
84270;SDS011;74614;50.032;19.566;2024-01-15T06:13:26;5;;;4;;
84270;SDS011;74614;50.032;19.566;2024-01-15T06:15:21;5;;;4;;
84270;SDS011;74614;50.032;19.566;2024-01-15T06:17:23;5;;;4;;
84270;SDS011;74614;50.032;19.566;2024-01-15T06:19:22;5;;;4;;
84270;SDS011;74614;50.032;19.566;2024-01-15T06:21:23;4;;;3;;
84270;SDS011;74614;50.032;19.566;2024-01-15T06:23:23;5;;;4;;
84270;SDS011;74614;50.032;19.566;2024-01-15T06:25:26;5;;;3;;
84270;SDS011;74614;50.032;19.566;2024-01-15T06:27:21;5;;;4;;
84270;SDS011;74614;50.032;19.566;2024-01-15T06:29:31;6;;;5;;
84270;SDS011;74614;50.032;19.566;2024-01-15T06:31:27;4;;;3;;
84270;SDS011;74614;50.032;19.566;2024-01-15T06:33:41;5;;;4;;
84270;SDS011;74614;50.032;19.566;2024-01-15T06:36:26;6;;;4;;
84270;SDS011;74614;50.032;19.566;2024-01-15T06:38:21;5;;;4;;
84270;SDS011;74614;50.032;19.566;2024-01-15T06:40:22;6;;;4;;
84270;SDS011;74614;50.032;19.566;2024-01-15T06:42:24;5;;;4;;
84270;SDS011;74614;50.032;19.566;2024-01-15T06:44:23;6;;;4;;
84270;SDS011;74614;50.032;19.566;2024-01-15T06:46:22;6;;;5;;
84270;SDS011;74614;50.032;19.566;2024-01-15T06:48:21;7;;;4;;
84270;SDS011;74614;50.032;19.566;2024-01-15T06:50:22;7;;;4;;
84270;SDS011;74614;50.032;19.566;2024-01-15T06:52:21;7;;;4;;
84270;SDS011;74614;50.032;19.566;2024-01-15T06:54:22;6;;;4;;
84270;SDS011;74614;50.032;19.566;2024-01-15T06:56:23;6;;;5;;
84270;SDS011;74614;50.032;19.566;2024-01-15T06:58:22;5;;;3;;
84270;SDS011;74614;50.032;19.566;2024-01-15T07:00:22;6;;;4;;
84270;SDS011;74614;50.032;19.566;2024-01-15T07:02:23;5;;;4;;
84270;SDS011;74614;50.032;19.566;2024-01-15T07:04:23;6;;;4;;
84270;SDS011;74614;50.032;19.566;2024-01-15T07:06:23;7;;;4;;
84270;SDS011;74614;50.032;19.566;2024-01-15T07:08:22;7;;;5;;
84270;SDS011;74614;50.032;19.566;2024-01-15T07:10:23;7;;;4;;
84270;SDS011;74614;50.032;19.566;2024-01-15T07:12:21;7;;;5;;
84270;SDS011;74614;50.032;19.566;2024-01-15T07:14:22;7;;;5;;
84270;SDS011;74614;50.032;19.566;2024-01-15T07:16:22;8;;;5;;
84270;SDS011;74614;50.032;19.566;2024-01-15T07:18:21;6;;;4;;
84270;SDS011;74614;50.032;19.566;2024-01-15T07:20:23;6;;;4;;
84270;SDS011;74614;50.032;19.566;2024-01-15T07:22:22;6;;;5;;
84270;SDS011;74614;50.032;19.566;2024-01-15T07:24:21;7;;;5;;
84270;SDS011;74614;50.032;19.566;2024-01-15T07:26:24;7;;;5;;
84270;SDS011;74614;50.032;19.566;2024-01-15T07:28:21;7;;;5;;
84270;SDS011;74614;50.032;19.566;2024-01-15T07:30:27;7;;;5;;
84270;SDS011;74614;50.032;19.566;2024-01-15T07:32:23;8;;;5;;
84270;SDS011;74614;50.032;19.566;2024-01-15T07:34:24;7;;;5;;
84270;SDS011;74614;50.032;19.566;2024-01-15T07:36:24;8;;;6;;
84270;SDS011;74614;50.032;19.566;2024-01-15T07:38:29;8;;;5;;
84270;SDS011;74614;50.032;19.566;2024-01-15T07:40:30;8;;;6;;
84270;SDS011;74614;50.032;19.566;2024-01-15T07:42:24;18;;;12;;
84270;SDS011;74614;50.032;19.566;2024-01-15T07:44:22;10;;;7;;
84270;SDS011;74614;50.032;19.566;2024-01-15T07:46:24;10;;;6;;
84270;SDS011;74614;50.032;19.566;2024-01-15T07:48:26;13;;;10;;
84270;SDS011;74614;50.032;19.566;2024-01-15T07:50:22;11;;;6;;
84270;SDS011;74614;50.032;19.566;2024-01-15T07:52:22;7;;;6;;
84270;SDS011;74614;50.032;19.566;2024-01-15T07:54:27;13;;;9;;
84270;SDS011;74614;50.032;19.566;2024-01-15T07:56:22;8;;;6;;
84270;SDS011;74614;50.032;19.566;2024-01-15T07:58:23;13;;;9;;
84270;SDS011;74614;50.032;19.566;2024-01-15T08:00:23;10;;;8;;
84270;SDS011;74614;50.032;19.566;2024-01-15T08:02:25;8;;;6;;
84270;SDS011;74614;50.032;19.566;2024-01-15T08:04:24;8;;;6;;
84270;SDS011;74614;50.032;19.566;2024-01-15T08:06:21;9;;;7;;
84270;SDS011;74614;50.032;19.566;2024-01-15T08:08:29;8;;;6;;
84270;SDS011;74614;50.032;19.566;2024-01-15T08:10:22;9;;;6;;
84270;SDS011;74614;50.032;19.566;2024-01-15T08:12:24;10;;;7;;
84270;SDS011;74614;50.032;19.566;2024-01-15T08:14:21;11;;;8;;
84270;SDS011;74614;50.032;19.566;2024-01-15T08:16:23;11;;;7;;
84270;SDS011;74614;50.032;19.566;2024-01-15T08:18:24;10;;;7;;
84270;SDS011;74614;50.032;19.566;2024-01-15T08:20:22;11;;;7;;
84270;SDS011;74614;50.032;19.566;2024-01-15T08:22:21;11;;;7;;
84270;SDS011;74614;50.032;19.566;2024-01-15T08:24:22;11;;;7;;
84270;SDS011;74614;50.032;19.566;2024-01-15T08:26:23;9;;;6;;
84270;SDS011;74614;50.032;19.566;2024-01-15T08:28:24;9;;;6;;
84270;SDS011;74614;50.032;19.566;2024-01-15T08:30:29;10;;;6;;
84270;SDS011;74614;50.032;19.566;2024-01-15T08:32:21;10;;;7;;
84270;SDS011;74614;50.032;19.566;2024-01-15T08:34:22;12;;;8;;
84270;SDS011;74614;50.032;19.566;2024-01-15T08:36:27;10;;;7;;
84270;SDS011;74614;50.032;19.566;2024-01-15T08:38:22;11;;;7;;
84270;SDS011;74614;50.032;19.566;2024-01-15T08:40:22;12;;;7;;
84270;SDS011;74614;50.032;19.566;2024-01-15T08:42:25;13;;;7;;
84270;SDS011;74614;50.032;19.566;2024-01-15T08:44:24;12;;;9;;
84270;SDS011;74614;50.032;19.566;2024-01-15T08:46:21;10;;;7;;
84270;SDS011;74614;50.032;19.566;2024-01-15T08:48:23;10;;;7;;
84270;SDS011;74614;50.032;19.566;2024-01-15T08:50:23;9;;;7;;
84270;SDS011;74614;50.032;19.566;2024-01-15T08:52:27;9;;;6;;
84270;SDS011;74614;50.032;19.566;2024-01-15T08:54:27;10;;;7;;
84270;SDS011;74614;50.032;19.566;2024-01-15T08:56:22;9;;;7;;
84270;SDS011;74614;50.032;19.566;2024-01-15T08:58:22;10;;;7;;
84270;SDS011;74614;50.032;19.566;2024-01-15T09:00:22;9;;;7;;
84270;SDS011;74614;50.032;19.566;2024-01-15T09:02:23;10;;;7;;
84270;SDS011;74614;50.032;19.566;2024-01-15T09:04:24;10;;;8;;
84270;SDS011;74614;50.032;19.566;2024-01-15T09:06:26;10;;;8;;
84270;SDS011;74614;50.032;19.566;2024-01-15T09:08:22;11;;;7;;
84270;SDS011;74614;50.032;19.566;2024-01-15T09:10:24;10;;;7;;
84270;SDS011;74614;50.032;19.566;2024-01-15T09:12:24;10;;;7;;
84270;SDS011;74614;50.032;19.566;2024-01-15T09:14:28;11;;;8;;
84270;SDS011;74614;50.032;19.566;2024-01-15T09:16:21;10;;;6;;
84270;SDS011;74614;50.032;19.566;2024-01-15T09:18:22;12;;;8;;
84270;SDS011;74614;50.032;19.566;2024-01-15T09:20:24;11;;;7;;
84270;SDS011;74614;50.032;19.566;2024-01-15T09:22:20;11;;;8;;
84270;SDS011;74614;50.032;19.566;2024-01-15T09:24:27;11;;;7;;
84270;SDS011;74614;50.032;19.566;2024-01-15T09:26:22;11;;;7;;
84270;SDS011;74614;50.032;19.566;2024-01-15T09:28:22;14;;;9;;
84270;SDS011;74614;50.032;19.566;2024-01-15T09:30:22;18;;;12;;
84270;SDS011;74614;50.032;19.566;2024-01-15T09:32:24;20;;;13;;
84270;SDS011;74614;50.032;19.566;2024-01-15T09:34:21;21;;;14;;
84270;SDS011;74614;50.032;19.566;2024-01-15T09:36:20;13;;;9;;
84270;SDS011;74614;50.032;19.566;2024-01-15T09:38:22;11;;;8;;
84270;SDS011;74614;50.032;19.566;2024-01-15T09:40:23;11;;;8;;
84270;SDS011;74614;50.032;19.566;2024-01-15T09:42:25;13;;;10;;
84270;SDS011;74614;50.032;19.566;2024-01-15T09:44:27;12;;;8;;
84270;SDS011;74614;50.032;19.566;2024-01-15T09:46:23;14;;;10;;
84270;SDS011;74614;50.032;19.566;2024-01-15T09:48:22;28;;;17;;
84270;SDS011;74614;50.032;19.566;2024-01-15T09:50:22;23;;;14;;
84270;SDS011;74614;50.032;19.566;2024-01-15T09:52:22;58;;;38;;
84270;SDS011;74614;50.032;19.566;2024-01-15T09:54:21;14;;;11;;
84270;SDS011;74614;50.032;19.566;2024-01-15T09:56:22;16;;;11;;
84270;SDS011;74614;50.032;19.566;2024-01-15T09:58:23;19;;;14;;
84270;SDS011;74614;50.032;19.566;2024-01-15T10:00:24;19;;;14;;
84270;SDS011;74614;50.032;19.566;2024-01-15T10:02:26;19;;;14;;
84270;SDS011;74614;50.032;19.566;2024-01-15T10:04:26;19;;;14;;
84270;SDS011;74614;50.032;19.566;2024-01-15T10:06:22;19;;;14;;
84270;SDS011;74614;50.032;19.566;2024-01-15T10:08:40;19;;;14;;
84270;SDS011;74614;50.032;19.566;2024-01-15T10:11:21;19;;;14;;
84270;SDS011;74614;50.032;19.566;2024-01-15T10:13:26;19;;;14;;
84270;SDS011;74614;50.032;19.566;2024-01-15T10:15:22;19;;;14;;
84270;SDS011;74614;50.032;19.566;2024-01-15T10:17:24;19;;;14;;
84270;SDS011;74614;50.032;19.566;2024-01-15T10:19:21;19;;;14;;
84270;SDS011;74614;50.032;19.566;2024-01-15T10:21:23;19;;;14;;
84270;SDS011;74614;50.032;19.566;2024-01-15T10:23:22;19;;;14;;
84270;SDS011;74614;50.032;19.566;2024-01-15T10:25:29;13;;;9;;
84270;SDS011;74614;50.032;19.566;2024-01-15T10:27:24;13;;;9;;
84270;SDS011;74614;50.032;19.566;2024-01-15T10:29:25;13;;;9;;
84270;SDS011;74614;50.032;19.566;2024-01-15T10:31:30;15;;;9;;
84270;SDS011;74614;50.032;19.566;2024-01-15T10:33:27;14;;;9;;
84270;SDS011;74614;50.032;19.566;2024-01-15T10:35:21;15;;;11;;
84270;SDS011;74614;50.032;19.566;2024-01-15T10:37:28;14;;;11;;
84270;SDS011;74614;50.032;19.566;2024-01-15T10:39:22;13;;;9;;
84270;SDS011;74614;50.032;19.566;2024-01-15T10:41:28;15;;;10;;
84270;SDS011;74614;50.032;19.566;2024-01-15T10:43:24;14;;;10;;
84270;SDS011;74614;50.032;19.566;2024-01-15T10:45:25;14;;;10;;
84270;SDS011;74614;50.032;19.566;2024-01-15T10:47:24;15;;;11;;
84270;SDS011;74614;50.032;19.566;2024-01-15T10:49:31;13;;;10;;
84270;SDS011;74614;50.032;19.566;2024-01-15T10:51:23;15;;;10;;
84270;SDS011;74614;50.032;19.566;2024-01-15T10:53:28;14;;;10;;
84270;SDS011;74614;50.032;19.566;2024-01-15T10:55:27;15;;;10;;
84270;SDS011;74614;50.032;19.566;2024-01-15T10:57:27;14;;;10;;
84270;SDS011;74614;50.032;19.566;2024-01-15T10:59:23;14;;;10;;
84270;SDS011;74614;50.032;19.566;2024-01-15T11:01:29;16;;;10;;
84270;SDS011;74614;50.032;19.566;2024-01-15T11:03:22;14;;;10;;
84270;SDS011;74614;50.032;19.566;2024-01-15T11:05:27;13;;;8;;
84270;SDS011;74614;50.032;19.566;2024-01-15T11:07:24;13;;;9;;
84270;SDS011;74614;50.032;19.566;2024-01-15T11:09:29;14;;;8;;
84270;SDS011;74614;50.032;19.566;2024-01-15T11:11:24;15;;;10;;
84270;SDS011;74614;50.032;19.566;2024-01-15T11:13:40;15;;;10;;
84270;SDS011;74614;50.032;19.566;2024-01-15T11:16:18;14;;;10;;
84270;SDS011;74614;50.032;19.566;2024-01-15T11:18:20;15;;;11;;
84270;SDS011;74614;50.032;19.566;2024-01-15T11:20:18;13;;;10;;
84270;SDS011;74614;50.032;19.566;2024-01-15T11:22:51;14;;;10;;
84270;SDS011;74614;50.032;19.566;2024-01-15T11:25:24;14;;;10;;
84270;SDS011;74614;50.032;19.566;2024-01-15T11:27:39;17;;;12;;
84270;SDS011;74614;50.032;19.566;2024-01-15T11:30:24;14;;;9;;
84270;SDS011;74614;50.032;19.566;2024-01-15T11:32:18;19;;;13;;
84270;SDS011;74614;50.032;19.566;2024-01-15T11:35:22;14;;;10;;
84270;SDS011;74614;50.032;19.566;2024-01-15T11:38:26;14;;;10;;
84270;SDS011;74614;50.032;19.566;2024-01-15T11:40:35;14;;;10;;
84270;SDS011;74614;50.032;19.566;2024-01-15T11:43:20;14;;;10;;
84270;SDS011;74614;50.032;19.566;2024-01-15T11:45:22;14;;;10;;
84270;SDS011;74614;50.032;19.566;2024-01-15T11:47:27;13;;;8;;
84270;SDS011;74614;50.032;19.566;2024-01-15T11:50:24;13;;;9;;
84270;SDS011;74614;50.032;19.566;2024-01-15T11:52:31;15;;;10;;
84270;SDS011;74614;50.032;19.566;2024-01-15T11:55:19;13;;;8;;
84270;SDS011;74614;50.032;19.566;2024-01-15T11:57:25;14;;;9;;
84270;SDS011;74614;50.032;19.566;2024-01-15T12:00:27;15;;;10;;
84270;SDS011;74614;50.032;19.566;2024-01-15T12:02:21;18;;;10;;
84270;SDS011;74614;50.032;19.566;2024-01-15T12:04:22;18;;;11;;
84270;SDS011;74614;50.032;19.566;2024-01-15T12:06:22;21;;;15;;
84270;SDS011;74614;50.032;19.566;2024-01-15T12:08:22;15;;;10;;
84270;SDS011;74614;50.032;19.566;2024-01-15T12:10:25;18;;;12;;
84270;SDS011;74614;50.032;19.566;2024-01-15T12:12:24;16;;;10;;
84270;SDS011;74614;50.032;19.566;2024-01-15T12:15:18;13;;;10;;
84270;SDS011;74614;50.032;19.566;2024-01-15T12:17:22;15;;;11;;
84270;SDS011;74614;50.032;19.566;2024-01-15T12:19:19;17;;;11;;
84270;SDS011;74614;50.032;19.566;2024-01-15T12:21:21;17;;;11;;
84270;SDS011;74614;50.032;19.566;2024-01-15T12:23:18;17;;;11;;
84270;SDS011;74614;50.032;19.566;2024-01-15T12:25:24;17;;;11;;
84270;SDS011;74614;50.032;19.566;2024-01-15T12:27:20;17;;;11;;
84270;SDS011;74614;50.032;19.566;2024-01-15T12:29:22;17;;;11;;
84270;SDS011;74614;50.032;19.566;2024-01-15T12:31:19;17;;;11;;
84270;SDS011;74614;50.032;19.566;2024-01-15T12:33:22;15;;;10;;
84270;SDS011;74614;50.032;19.566;2024-01-15T12:35:19;15;;;10;;
84270;SDS011;74614;50.032;19.566;2024-01-15T12:37:21;15;;;10;;
84270;SDS011;74614;50.032;19.566;2024-01-15T12:39:20;14;;;10;;
84270;SDS011;74614;50.032;19.566;2024-01-15T12:41:22;14;;;10;;
84270;SDS011;74614;50.032;19.566;2024-01-15T12:43:18;14;;;10;;
84270;SDS011;74614;50.032;19.566;2024-01-15T12:45:23;14;;;10;;
84270;SDS011;74614;50.032;19.566;2024-01-15T12:47:20;14;;;10;;
84270;SDS011;74614;50.032;19.566;2024-01-15T12:49:21;14;;;10;;
84270;SDS011;74614;50.032;19.566;2024-01-15T12:51:24;14;;;10;;
84270;SDS011;74614;50.032;19.566;2024-01-15T12:53:21;14;;;10;;
84270;SDS011;74614;50.032;19.566;2024-01-15T12:55:19;14;;;10;;
84270;SDS011;74614;50.032;19.566;2024-01-15T12:57:20;14;;;10;;
84270;SDS011;74614;50.032;19.566;2024-01-15T12:59:19;14;;;10;;
84270;SDS011;74614;50.032;19.566;2024-01-15T13:01:22;14;;;9;;
84270;SDS011;74614;50.032;19.566;2024-01-15T13:03:18;13;;;8;;
84270;SDS011;74614;50.032;19.566;2024-01-15T13:05:21;13;;;9;;
84270;SDS011;74614;50.032;19.566;2024-01-15T13:07:19;14;;;9;;